Terminal Aerodrome Forecast
Issued by NWS

Home | Current Version | Previous Version | Text Only | Print | Product List | Glossary On
Versions: 1 2 3 4 5 6 7 8 9 10 11 12 13 14 15 16 17 18
000
FTUS43 KABR 190100 AAA
TAFATY
TAF AMD
KATY 190133Z 1902/1924 05006KT P6SM -SHRA OVC070
      TEMPO 1902/1906 5SM -SHRA BR BKN025
     FM190800 36008KT P6SM OVC040
     FM191000 32015KT P6SM OVC040
     FM191300 33020G30KT P6SM OVC070=

USA.gov is the U.S. government's official web portal to all federal, state and local government web resources and services.